Time;durP1;ratioP1;P1;durP2;ratioP2;P2;SDS_P1;SDS_P2;PMS_P1;PMS_P2;Temp;Humidity;BMP_temperature;BMP_pressure;BME280_temperature;BME280_humidity;BME280_pressure;Samples;Min_cycle;Max_cycle;Signal;HPM_P1;HPM_P2
2021/09/24 00:00:33;;;;;;;2.50;0.90;;;21.80;99.90;;;;;;4993346;28;20482;-71
2021/09/24 00:02:59;;;;;;;1.88;0.90;;;21.80;99.90;;;;;;5007072;28;20037;-70
2021/09/24 00:05:25;;;;;;;3.58;0.90;;;21.80;99.90;;;;;;5013074;28;20063;-70
2021/09/24 00:07:51;;;;;;;3.15;1.00;;;21.80;99.90;;;;;;5005460;28;20053;-69
2021/09/24 00:10:18;;;;;;;1.92;0.90;;;21.80;99.90;;;;;;4993319;28;20026;-71
2021/09/24 00:12:44;;;;;;;2.78;0.90;;;21.80;99.90;;;;;;4979505;28;20378;-71
2021/09/24 00:15:14;;;;;;;2.65;0.90;;;21.80;99.90;;;;;;5012425;28;20167;-72
2021/09/24 00:17:40;;;;;;;1.65;0.90;;;21.80;99.90;;;;;;5012405;28;20022;-71
2021/09/24 00:20:07;;;;;;;1.58;0.90;;;21.80;99.90;;;;;;5012598;28;20405;-72
2021/09/24 00:22:33;;;;;;;2.88;0.90;;;21.70;99.90;;;;;;5012868;28;20072;-71
2021/09/24 00:24:59;;;;;;;2.70;0.80;;;21.70;99.90;;;;;;5012957;28;20030;-71
2021/09/24 00:27:25;;;;;;;2.83;0.85;;;21.70;99.90;;;;;;5011470;28;20056;-68
2021/09/24 00:29:50;;;;;;;1.10;0.70;;;21.70;99.90;;;;;;5012533;28;20032;-72
2021/09/24 00:32:16;;;;;;;2.90;1.08;;;21.70;99.90;;;;;;5007670;28;20118;-71
2021/09/24 00:34:42;;;;;;;3.05;0.90;;;21.70;99.90;;;;;;4993323;28;20499;-69
2021/09/24 00:37:08;;;;;;;2.60;1.05;;;21.70;99.90;;;;;;4993061;28;20438;-71
2021/09/24 00:39:33;;;;;;;2.30;1.08;;;21.70;99.90;;;;;;4992817;28;20106;-72
2021/09/24 00:41:59;;;;;;;2.15;0.80;;;21.70;99.90;;;;;;4993138;28;20053;-71
2021/09/24 00:44:39;;;;;;;2.83;0.95;;;21.70;99.90;;;;;;4993220;28;20520;-70
2021/09/24 00:47:04;;;;;;;2.10;0.93;;;21.70;99.90;;;;;;4993024;28;20106;-71
2021/09/24 00:49:30;;;;;;;1.50;0.80;;;21.70;99.90;;;;;;5011217;28;20121;-70
2021/09/24 00:51:56;;;;;;;2.22;0.82;;;21.70;99.90;;;;;;5012650;28;20117;-70
2021/09/24 00:54:22;;;;;;;1.95;0.65;;;21.70;99.90;;;;;;5007732;28;20525;-71
2021/09/24 00:56:48;;;;;;;1.77;0.65;;;21.60;99.90;;;;;;4955767;28;20122;-70
2021/09/24 00:59:13;;;;;;;1.88;0.90;;;21.60;99.90;;;;;;4973090;28;20022;-71
2021/09/24 01:01:39;;;;;;;1.50;0.73;;;21.60;99.90;;;;;;4986119;28;20058;-71
2021/09/24 01:04:06;;;;;;;1.20;0.77;;;21.60;99.90;;;;;;5004540;28;20575;-72
2021/09/24 01:06:31;;;;;;;1.13;0.65;;;21.60;99.90;;;;;;5011447;28;20390;-72
2021/09/24 01:08:57;;;;;;;1.85;0.65;;;21.60;99.90;;;;;;5005074;28;20026;-70
2021/09/24 01:11:23;;;;;;;1.90;0.60;;;21.60;99.90;;;;;;5002200;28;20148;-71
2021/09/24 01:13:49;;;;;;;2.60;0.90;;;21.60;99.90;;;;;;4997432;28;20082;-72
2021/09/24 01:16:14;;;;;;;1.52;0.80;;;21.60;99.90;;;;;;4992486;28;20048;-73
2021/09/24 01:18:40;;;;;;;1.90;0.95;;;21.60;99.90;;;;;;4992187;28;20027;-71
2021/09/24 01:21:10;;;;;;;2.38;0.82;;;21.60;99.90;;;;;;4993328;28;20030;-70
2021/09/24 01:23:36;;;;;;;1.60;0.82;;;21.60;99.90;;;;;;4992986;28;20057;-71
2021/09/24 01:26:02;;;;;;;2.72;1.00;;;21.60;99.90;;;;;;4992193;28;20463;-72
2021/09/24 01:28:27;;;;;;;2.42;0.90;;;21.60;99.90;;;;;;5004066;28;20382;-70
2021/09/24 01:30:53;;;;;;;1.42;0.63;;;21.60;99.90;;;;;;5011691;28;20034;-71
2021/09/24 01:33:19;;;;;;;2.08;0.93;;;21.60;99.90;;;;;;5009400;28;20433;-70
2021/09/24 01:35:44;;;;;;;2.22;0.70;;;21.60;99.90;;;;;;5006178;28;20523;-70
2021/09/24 01:38:10;;;;;;;2.08;0.90;;;21.60;99.90;;;;;;5001088;28;20111;-71
2021/09/24 01:40:36;;;;;;;1.33;0.60;;;21.50;99.90;;;;;;4991693;28;20031;-70
2021/09/24 01:43:01;;;;;;;3.60;0.73;;;21.50;99.90;;;;;;4991974;28;20083;-71
2021/09/24 01:45:27;;;;;;;5.40;0.90;;;21.50;99.90;;;;;;4991855;28;20034;-68
2021/09/24 01:47:53;;;;;;;1.35;0.63;;;21.50;99.90;;;;;;4992325;28;20038;-69
2021/09/24 01:50:19;;;;;;;1.88;0.73;;;21.50;99.90;;;;;;4991863;28;20042;-72
2021/09/24 01:52:45;;;;;;;2.55;0.90;;;21.50;99.90;;;;;;4991803;28;20425;-69
2021/09/24 01:55:11;;;;;;;1.38;0.80;;;21.50;99.90;;;;;;5001133;28;20061;-69
2021/09/24 01:57:37;;;;;;;2.17;0.80;;;21.50;99.90;;;;;;5006635;28;20062;-70
2021/09/24 02:00:08;;;;;;;2.40;0.68;;;21.50;99.90;;;;;;4991759;28;20039;-71
2021/09/24 02:02:34;;;;;;;1.63;0.70;;;21.50;99.90;;;;;;5002171;28;20050;-71
2021/09/24 02:04:59;;;;;;;1.92;0.90;;;21.50;99.90;;;;;;4992905;28;20383;-72
2021/09/24 02:07:25;;;;;;;1.55;0.85;;;21.50;99.90;;;;;;4992304;28;20042;-71
2021/09/24 02:09:51;;;;;;;1.13;0.63;;;21.50;99.90;;;;;;4974266;28;20038;-73
2021/09/24 02:12:17;;;;;;;2.08;0.73;;;21.50;99.90;;;;;;4991787;28;20039;-70
2021/09/24 02:14:43;;;;;;;1.90;0.63;;;21.50;99.90;;;;;;4995190;28;20034;-69
2021/09/24 02:17:08;;;;;;;1.85;0.75;;;21.50;99.90;;;;;;5012118;28;20033;-69
2021/09/24 02:19:34;;;;;;;1.73;0.70;;;21.50;99.90;;;;;;5003133;28;20383;-69
2021/09/24 02:22:01;;;;;;;1.45;0.75;;;21.40;99.90;;;;;;4995617;28;20106;-72
2021/09/24 02:24:26;;;;;;;0.88;0.52;;;21.50;99.90;;;;;;5012296;28;20437;-69
2021/09/24 02:26:53;;;;;;;1.90;0.80;;;21.40;99.90;;;;;;5014993;28;20025;-71
2021/09/24 02:29:18;;;;;;;1.88;0.90;;;21.40;99.90;;;;;;5015106;28;20049;-72
2021/09/24 02:31:44;;;;;;;1.27;0.68;;;21.40;99.90;;;;;;5012632;28;20420;-71
2021/09/24 02:34:10;;;;;;;1.38;0.80;;;21.50;99.90;;;;;;5013193;28;20026;-71
2021/09/24 02:36:37;;;;;;;1.92;0.88;;;21.40;99.90;;;;;;4992570;28;20034;-71
2021/09/24 02:39:04;;;;;;;2.63;1.05;;;21.40;99.90;;;;;;4995016;28;20022;-71
2021/09/24 02:41:30;;;;;;;2.00;0.70;;;21.40;99.90;;;;;;4995159;28;20041;-70
2021/09/24 02:43:56;;;;;;;1.20;0.60;;;21.40;99.90;;;;;;4995451;28;20034;-69
2021/09/24 02:46:21;;;;;;;1.33;0.80;;;21.40;99.90;;;;;;4995112;28;20037;-72
2021/09/24 02:48:47;;;;;;;2.58;0.95;;;21.40;99.90;;;;;;4995710;28;20049;-71
2021/09/24 02:51:13;;;;;;;1.52;0.77;;;21.40;99.90;;;;;;4994924;28;20030;-71
2021/09/24 02:53:38;;;;;;;1.15;0.60;;;21.40;99.90;;;;;;4977131;28;20026;-72
2021/09/24 02:56:04;;;;;;;1.05;0.57;;;21.40;99.90;;;;;;4994705;28;20031;-70
2021/09/24 02:58:30;;;;;;;2.35;1.00;;;21.40;99.90;;;;;;4977035;28;20038;-70
2021/09/24 03:00:56;;;;;;;2.17;0.80;;;21.40;99.90;;;;;;4994994;28;20027;-71
2021/09/24 03:03:21;;;;;;;2.10;0.70;;;21.40;99.90;;;;;;5001356;28;20022;-71
2021/09/24 03:05:47;;;;;;;2.63;0.95;;;21.40;99.90;;;;;;5009726;28;20034;-71
2021/09/24 03:08:13;;;;;;;1.10;0.68;;;21.40;99.90;;;;;;4995696;28;20441;-72
2021/09/24 03:10:38;;;;;;;2.83;1.02;;;21.40;99.90;;;;;;5013629;28;20417;-72
2021/09/24 03:13:04;;;;;;;1.38;0.75;;;21.40;99.90;;;;;;4997166;28;20475;-71
2021/09/24 03:15:30;;;;;;;1.58;0.70;;;21.40;99.90;;;;;;4994337;28;20027;-70
2021/09/24 03:17:56;;;;;;;0.73;0.52;;;21.40;99.90;;;;;;4994645;28;20031;-71
2021/09/24 03:20:22;;;;;;;1.35;0.70;;;21.30;99.90;;;;;;4994195;28;20420;-71
2021/09/24 03:22:47;;;;;;;1.60;0.68;;;21.30;99.90;;;;;;4999061;28;20066;-70
2021/09/24 03:25:13;;;;;;;0.93;0.63;;;21.30;99.90;;;;;;5007785;28;20059;-71
2021/09/24 03:27:40;;;;;;;2.40;1.10;;;21.30;99.90;;;;;;4993890;28;20066;-69
2021/09/24 03:30:07;;;;;;;1.77;0.90;;;21.30;99.90;;;;;;5009381;28;20532;-72
2021/09/24 03:32:33;;;;;;;2.63;1.17;;;21.30;99.90;;;;;;5006245;28;20038;-71
2021/09/24 03:35:00;;;;;;;1.88;0.80;;;21.30;99.90;;;;;;5003690;28;20019;-71
2021/09/24 03:37:26;;;;;;;1.75;0.90;;;21.30;99.90;;;;;;4994556;28;20042;-69
2021/09/24 03:39:52;;;;;;;2.30;0.90;;;21.30;99.90;;;;;;4994004;28;20019;-68
2021/09/24 03:42:18;;;;;;;3.10;1.02;;;21.30;99.90;;;;;;4994046;28;20435;-68
2021/09/24 03:44:44;;;;;;;1.63;0.80;;;21.30;99.90;;;;;;4993663;28;20034;-69
2021/09/24 03:47:10;;;;;;;1.40;0.90;;;21.30;99.90;;;;;;4993914;28;20030;-70
2021/09/24 03:49:35;;;;;;;1.73;0.90;;;21.30;99.90;;;;;;4993627;28;20027;-68
2021/09/24 03:52:03;;;;;;;1.58;0.75;;;21.30;99.90;;;;;;4993677;28;20038;-70
2021/09/24 03:54:29;;;;;;;1.60;0.75;;;21.30;99.90;;;;;;4983418;28;20370;-69
2021/09/24 03:56:54;;;;;;;2.13;0.93;;;21.30;99.90;;;;;;5013277;28;20065;-70
2021/09/24 03:59:20;;;;;;;3.22;0.90;;;21.30;99.90;;;;;;5013319;28;20033;-73
2021/09/24 04:01:46;;;;;;;1.40;0.68;;;21.30;99.90;;;;;;5012578;28;20026;-70
2021/09/24 04:04:11;;;;;;;2.15;1.05;;;21.30;99.90;;;;;;4994653;28;20157;-70
2021/09/24 04:06:37;;;;;;;1.83;0.85;;;21.30;99.90;;;;;;4993107;28;20058;-73
2021/09/24 04:09:03;;;;;;;2.42;0.90;;;21.20;99.90;;;;;;4993494;28;20094;-71
2021/09/24 04:11:28;;;;;;;1.38;0.68;;;21.30;99.90;;;;;;4993575;28;20031;-70
2021/09/24 04:13:54;;;;;;;3.50;1.13;;;21.30;99.90;;;;;;4993452;28;20026;-70
2021/09/24 04:16:21;;;;;;;2.95;1.00;;;21.20;99.90;;;;;;4993224;28;20101;-70
2021/09/24 04:18:47;;;;;;;1.67;0.75;;;21.30;99.90;;;;;;4977323;28;20049;-69
2021/09/24 04:21:13;;;;;;;2.42;1.02;;;21.20;99.90;;;;;;4994183;28;20038;-68
2021/09/24 04:23:39;;;;;;;2.05;0.95;;;21.30;99.90;;;;;;4992856;28;20031;-70
2021/09/24 04:26:04;;;;;;;1.85;1.17;;;21.20;99.90;;;;;;5012580;28;20076;-72
2021/09/24 04:28:30;;;;;;;2.78;1.05;;;21.20;99.90;;;;;;5012303;28;20053;-71
2021/09/24 04:30:56;;;;;;;3.05;1.20;;;21.20;99.90;;;;;;5006104;28;20502;-71
2021/09/24 04:33:22;;;;;;;1.70;0.95;;;21.20;99.90;;;;;;4994305;28;20439;-71
2021/09/24 04:35:48;;;;;;;2.25;1.10;;;21.20;99.90;;;;;;4992785;28;20038;-70
2021/09/24 04:38:13;;;;;;;2.10;0.90;;;21.20;99.90;;;;;;4993056;28;20483;-72
2021/09/24 04:40:39;;;;;;;1.77;0.98;;;21.20;99.90;;;;;;4992193;28;20061;-70
2021/09/24 04:43:05;;;;;;;2.97;1.10;;;21.20;99.90;;;;;;4992912;28;20383;-72
2021/09/24 04:45:31;;;;;;;2.75;1.17;;;21.20;99.90;;;;;;5008217;28;20156;-68
2021/09/24 04:47:56;;;;;;;2.40;1.13;;;21.20;99.90;;;;;;5006338;28;20026;-70
2021/09/24 04:50:22;;;;;;;2.45;1.10;;;21.20;99.90;;;;;;5008644;28;20032;-71
2021/09/24 04:52:48;;;;;;;2.50;1.20;;;21.20;99.90;;;;;;4994434;28;20081;-70
2021/09/24 04:55:14;;;;;;;1.70;1.00;;;21.20;99.90;;;;;;4998681;28;20030;-70
2021/09/24 04:57:39;;;;;;;2.25;0.98;;;21.20;99.90;;;;;;4991927;28;20037;-70
2021/09/24 05:00:08;;;;;;;2.65;1.15;;;21.20;99.90;;;;;;4993247;28;20030;-68
2021/09/24 05:02:33;;;;;;;2.92;1.10;;;21.20;99.90;;;;;;5009637;28;20029;-69
2021/09/24 05:04:59;;;;;;;2.20;1.10;;;21.20;99.90;;;;;;5010244;28;20080;-68
2021/09/24 05:07:25;;;;;;;2.42;1.05;;;21.20;99.90;;;;;;5012274;28;20061;-69
2021/09/24 05:09:50;;;;;;;2.05;1.02;;;21.20;99.90;;;;;;5003256;28;20113;-67
2021/09/24 05:12:16;;;;;;;1.85;1.10;;;21.20;99.90;;;;;;4997195;28;20049;-72
2021/09/24 05:14:42;;;;;;;2.00;0.80;;;21.20;99.90;;;;;;5007826;28;20038;-72
2021/09/24 05:17:07;;;;;;;2.75;1.20;;;21.20;99.90;;;;;;5009863;28;20026;-70
2021/09/24 05:19:33;;;;;;;2.97;1.25;;;21.20;99.90;;;;;;4993382;28;20419;-70
2021/09/24 05:21:59;;;;;;;2.53;1.30;;;21.20;99.90;;;;;;4992260;28;20486;-71
2021/09/24 05:24:24;;;;;;;2.80;1.27;;;21.20;99.90;;;;;;4992119;28;20023;-71
2021/09/24 05:26:50;;;;;;;2.80;1.25;;;21.20;99.90;;;;;;4991753;28;20034;-71
2021/09/24 05:29:16;;;;;;;2.28;1.08;;;21.20;99.90;;;;;;4992060;28;20045;-69
2021/09/24 05:31:41;;;;;;;4.63;1.05;;;21.20;99.90;;;;;;5002553;28;20037;-70
2021/09/24 05:34:07;;;;;;;4.72;1.50;;;21.20;99.90;;;;;;4998085;28;20506;-67
2021/09/24 05:36:33;;;;;;;3.55;1.15;;;21.20;99.90;;;;;;5011810;28;20036;-70
2021/09/24 05:38:59;;;;;;;5.55;1.65;;;21.20;99.90;;;;;;5011812;28;20104;-70
2021/09/24 05:41:25;;;;;;;3.25;1.20;;;21.20;99.90;;;;;;5003143;28;20110;-70
2021/09/24 05:43:50;;;;;;;2.00;1.10;;;21.30;99.90;;;;;;4991463;28;20042;-71
2021/09/24 05:46:18;;;;;;;1.98;1.10;;;21.20;99.90;;;;;;4995518;28;20030;-72
2021/09/24 05:48:43;;;;;;;5.00;1.30;;;21.30;99.90;;;;;;4991315;28;20537;-69
2021/09/24 05:51:09;;;;;;;6.07;2.95;;;21.20;99.90;;;;;;4991866;28;20041;-71
2021/09/24 05:53:35;;;;;;;6.30;3.40;;;21.20;99.90;;;;;;4994871;28;20076;-72
2021/09/24 05:56:01;;;;;;;5.90;3.35;;;21.20;99.90;;;;;;4996048;28;20447;-70
2021/09/24 05:58:27;;;;;;;7.78;3.88;;;21.10;99.90;;;;;;4997090;28;20022;-70
2021/09/24 06:00:52;;;;;;;10.68;4.10;;;21.10;99.90;;;;;;4995530;28;20054;-70
2021/09/24 06:03:18;;;;;;;10.65;4.07;;;21.10;99.90;;;;;;4995819;28;20478;-70
2021/09/24 06:05:44;;;;;;;7.43;3.90;;;21.10;99.90;;;;;;4995776;28;20418;-69
2021/09/24 06:08:09;;;;;;;9.43;4.35;;;21.00;99.90;;;;;;4995851;28;20084;-70
2021/09/24 06:10:38;;;;;;;7.07;3.83;;;21.00;99.90;;;;;;4995502;28;20037;-69
2021/09/24 06:13:05;;;;;;;9.25;4.50;;;20.90;99.90;;;;;;4995732;28;20081;-69
2021/09/24 06:15:31;;;;;;;6.68;4.32;;;20.90;99.90;;;;;;4996053;28;20490;-71
2021/09/24 06:17:56;;;;;;;9.23;5.47;;;20.90;99.90;;;;;;4995374;28;20031;-71
2021/09/24 06:20:22;;;;;;;9.15;5.25;;;20.90;99.90;;;;;;4995622;28;20366;-70
2021/09/24 06:22:48;;;;;;;10.65;5.80;;;20.80;99.90;;;;;;4995313;28;20529;-69
2021/09/24 06:25:14;;;;;;;12.57;5.88;;;20.80;99.90;;;;;;4995278;28;20387;-68
2021/09/24 06:27:40;;;;;;;10.15;5.32;;;20.70;99.90;;;;;;4995252;28;20038;-70
2021/09/24 06:30:08;;;;;;;14.52;6.32;;;20.70;99.90;;;;;;4996294;28;20033;-69
2021/09/24 06:32:34;;;;;;;10.65;5.65;;;20.60;99.90;;;;;;4995146;28;20439;-69
2021/09/24 06:35:00;;;;;;;15.75;6.53;;;20.60;99.90;;;;;;4995282;28;20060;-69
2021/09/24 06:37:26;;;;;;;12.48;6.30;;;20.50;99.90;;;;;;4994227;28;20096;-69
2021/09/24 06:39:51;;;;;;;15.18;7.00;;;20.50;99.90;;;;;;4993665;28;20029;-68
2021/09/24 06:42:17;;;;;;;14.02;6.60;;;20.50;99.90;;;;;;4994318;28;20445;-68
2021/09/24 06:44:43;;;;;;;11.68;6.15;;;20.50;99.90;;;;;;4994889;28;20538;-68
2021/09/24 06:47:09;;;;;;;13.65;6.05;;;20.40;99.90;;;;;;5002816;28;20080;-68
2021/09/24 06:49:36;;;;;;;10.07;6.05;;;20.30;99.90;;;;;;5013079;28;20425;-67
2021/09/24 06:52:03;;;;;;;9.55;5.60;;;20.30;99.90;;;;;;5014760;28;20034;-68
2021/09/24 06:54:30;;;;;;;11.13;5.93;;;20.30;99.90;;;;;;5014816;28;20088;-68
2021/09/24 06:56:56;;;;;;;11.15;4.75;;;20.20;99.90;;;;;;5009622;28;20073;-68
2021/09/24 06:59:21;;;;;;;8.48;4.72;;;20.20;99.90;;;;;;4994625;28;20014;-68
2021/09/24 07:01:47;;;;;;;7.47;4.10;;;20.20;99.90;;;;;;4994595;28;20081;-68
2021/09/24 07:04:14;;;;;;;7.95;3.45;;;20.20;99.90;;;;;;4994389;28;20045;-69
2021/09/24 07:06:40;;;;;;;6.53;3.42;;;20.20;99.90;;;;;;4994074;28;20030;-69
2021/09/24 07:09:06;;;;;;;6.90;3.40;;;20.20;99.90;;;;;;4993952;28;20590;-68
2021/09/24 07:11:33;;;;;;;6.57;3.08;;;20.20;99.90;;;;;;4994199;28;20030;-68
2021/09/24 07:13:59;;;;;;;9.98;3.20;;;20.20;99.90;;;;;;4994404;28;20033;-68
2021/09/24 07:16:25;;;;;;;4.68;2.80;;;20.20;99.90;;;;;;4994644;28;20382;-68
2021/09/24 07:18:51;;;;;;;8.02;3.40;;;20.20;99.90;;;;;;4994443;28;20109;-69
2021/09/24 07:21:17;;;;;;;10.05;2.47;;;20.20;99.90;;;;;;4994426;28;20378;-69
2021/09/24 07:23:43;;;;;;;8.43;2.88;;;20.20;99.90;;;;;;4994274;28;20022;-68
2021/09/24 07:26:09;;;;;;;6.65;2.45;;;20.30;99.90;;;;;;4994461;28;20030;-68
2021/09/24 07:28:35;;;;;;;4.97;2.40;;;20.30;99.90;;;;;;4994184;28;20506;-69
2021/09/24 07:31:00;;;;;;;4.88;2.20;;;20.30;99.90;;;;;;4994667;28;20049;-68
2021/09/24 07:33:26;;;;;;;5.95;2.45;;;20.30;99.90;;;;;;4994396;28;20100;-68
2021/09/24 07:35:52;;;;;;;5.65;2.30;;;20.30;99.90;;;;;;4994035;28;20026;-68
2021/09/24 07:38:18;;;;;;;4.53;2.25;;;20.30;99.90;;;;;;4994301;28;20411;-68
2021/09/24 07:40:45;;;;;;;4.78;2.20;;;20.30;99.90;;;;;;4994000;28;20031;-68
2021/09/24 07:43:11;;;;;;;3.35;1.85;;;20.30;99.90;;;;;;4994107;28;20153;-68
2021/09/24 07:45:37;;;;;;;4.85;2.33;;;20.30;99.90;;;;;;4993854;28;20407;-69
2021/09/24 07:48:02;;;;;;;6.28;2.53;;;20.30;99.90;;;;;;4994324;28;20069;-68
2021/09/24 07:50:28;;;;;;;5.63;2.63;;;20.30;99.90;;;;;;4993963;28;20477;-68
2021/09/24 07:52:55;;;;;;;4.70;2.25;;;20.40;99.90;;;;;;4993733;28;20566;-68
2021/09/24 07:55:21;;;;;;;3.47;2.05;;;20.30;99.90;;;;;;4993751;28;20030;-68
2021/09/24 07:57:51;;;;;;;5.25;1.73;;;20.30;99.90;;;;;;4993631;28;20153;-68
2021/09/24 08:00:17;;;;;;;4.90;2.03;;;20.40;99.90;;;;;;4993718;28;20030;-68
2021/09/24 08:02:43;;;;;;;4.13;1.83;;;20.40;99.90;;;;;;4993540;28;20026;-68
2021/09/24 08:05:10;;;;;;;2.88;1.52;;;20.40;99.90;;;;;;4993705;28;20022;-68
2021/09/24 08:07:35;;;;;;;3.53;1.83;;;20.30;99.90;;;;;;4993266;28;20034;-69
2021/09/24 08:10:03;;;;;;;4.07;1.83;;;20.40;99.90;;;;;;4993913;28;20109;-68
2021/09/24 08:12:28;;;;;;;3.63;1.85;;;20.40;99.90;;;;;;4993484;28;20501;-68
2021/09/24 08:14:54;;;;;;;5.07;2.00;;;20.40;99.90;;;;;;4992489;28;20026;-68
2021/09/24 08:17:20;;;;;;;2.45;1.40;;;20.30;99.90;;;;;;4993447;28;20030;-68
2021/09/24 08:19:45;;;;;;;4.40;1.83;;;20.40;99.90;;;;;;4993375;28;20034;-68
2021/09/24 08:22:11;;;;;;;4.07;1.80;;;20.40;99.90;;;;;;4993451;28;20044;-68
2021/09/24 08:24:37;;;;;;;3.72;1.80;;;20.40;99.90;;;;;;4993185;28;20029;-69
2021/09/24 08:27:02;;;;;;;3.10;1.58;;;20.40;99.90;;;;;;4993605;28;20021;-68
2021/09/24 08:29:28;;;;;;;2.72;1.85;;;20.40;99.90;;;;;;4993406;28;20073;-68
2021/09/24 08:31:54;;;;;;;4.00;1.75;;;20.40;99.90;;;;;;4992941;28;20324;-68
2021/09/24 08:34:19;;;;;;;3.97;1.90;;;20.50;99.90;;;;;;4993137;28;20475;-68
2021/09/24 08:36:45;;;;;;;3.72;1.88;;;20.50;99.90;;;;;;4993000;28;20034;-68
2021/09/24 08:39:11;;;;;;;3.10;1.75;;;20.50;99.90;;;;;;4993075;28;20093;-68
2021/09/24 08:41:37;;;;;;;4.30;2.00;;;20.50;99.90;;;;;;4992618;28;20505;-68
2021/09/24 08:44:03;;;;;;;2.55;1.48;;;20.50;99.90;;;;;;4993336;28;20491;-68
2021/09/24 08:46:32;;;;;;;3.15;1.60;;;20.50;99.90;;;;;;4992937;28;20031;-68
2021/09/24 08:48:58;;;;;;;2.72;1.60;;;20.50;99.90;;;;;;4992744;28;20069;-68
2021/09/24 08:51:23;;;;;;;2.08;1.40;;;20.50;99.90;;;;;;4992826;28;20434;-68
2021/09/24 08:53:49;;;;;;;3.95;1.60;;;20.60;99.90;;;;;;4992624;28;20037;-68
2021/09/24 08:56:15;;;;;;;3.88;1.55;;;20.60;99.90;;;;;;4992669;28;20042;-68
2021/09/24 08:58:41;;;;;;;2.78;1.20;;;20.60;99.90;;;;;;4992356;28;20034;-68
2021/09/24 09:01:07;;;;;;;3.13;1.40;;;20.60;99.90;;;;;;4992736;28;20022;-69
2021/09/24 09:03:42;;;;;;;2.45;1.58;;;20.60;99.90;;;;;;4993060;28;20105;-68
2021/09/24 09:06:09;;;;;;;4.57;1.30;;;20.60;99.90;;;;;;4992669;28;20022;-68
2021/09/24 09:08:36;;;;;;;2.05;1.25;;;20.60;99.90;;;;;;4992285;28;20018;-68
2021/09/24 09:11:06;;;;;;;2.17;1.05;;;20.70;99.90;;;;;;4992785;28;20034;-68
2021/09/24 09:13:34;;;;;;;2.22;1.10;;;20.70;99.90;;;;;;4992821;28;20041;-68
2021/09/24 09:16:05;;;;;;;2.50;1.20;;;20.60;99.90;;;;;;4992842;28;20102;-68
2021/09/24 09:18:34;;;;;;;2.83;1.10;;;20.70;99.90;;;;;;4992887;28;20081;-68
2021/09/24 09:21:02;;;;;;;2.35;1.25;;;20.70;99.90;;;;;;4992371;28;20471;-68
2021/09/24 09:23:28;;;;;;;2.05;1.20;;;20.70;99.90;;;;;;4992360;28;20430;-68
2021/09/24 09:26:03;;;;;;;3.08;1.33;;;20.70;99.90;;;;;;4992090;28;20650;-68
2021/09/24 09:28:39;;;;;;;2.80;1.00;;;20.70;99.90;;;;;;4992325;28;20038;-68
2021/09/24 09:31:24;;;;;;;2.42;1.10;;;20.70;99.90;;;;;;4992285;28;20470;-68
2021/09/24 09:33:54;;;;;;;2.88;1.13;;;20.70;99.90;;;;;;4991891;28;20033;-68
2021/09/24 09:36:28;;;;;;;2.25;1.10;;;20.70;99.90;;;;;;4992255;28;20077;-68
2021/09/24 09:38:55;;;;;;;2.75;1.20;;;20.70;99.90;;;;;;4992098;28;20048;-68
2021/09/24 09:41:22;;;;;;;1.60;1.13;;;20.70;99.90;;;;;;4992041;28;20032;-68
2021/09/24 09:43:54;;;;;;;1.15;0.98;;;20.70;99.90;;;;;;4991837;28;20026;-68
2021/09/24 09:46:23;;;;;;;1.92;0.75;;;20.80;99.90;;;;;;4992114;28;20487;-68
2021/09/24 09:49:08;;;;;;;2.00;0.85;;;20.80;99.90;;;;;;4991853;28;20537;-68
2021/09/24 09:51:37;;;;;;;1.75;0.88;;;20.80;99.90;;;;;;4992376;28;20031;-68
2021/09/24 09:54:03;;;;;;;2.05;0.80;;;20.80;99.90;;;;;;4992270;28;20394;-68
2021/09/24 09:56:50;;;;;;;2.05;1.00;;;20.80;99.90;;;;;;4991836;28;20422;-68
2021/09/24 09:59:25;;;;;;;1.27;0.80;;;20.90;99.90;;;;;;4992047;28;20026;-68
2021/09/24 10:02:14;;;;;;;1.33;0.77;;;20.90;99.90;;;;;;4991713;28;20027;-68
2021/09/24 10:04:43;;;;;;;1.38;0.60;;;20.90;99.90;;;;;;4991680;28;20496;-68
2021/09/24 10:07:14;;;;;;;0.70;0.60;;;20.90;99.90;;;;;;4991852;28;20030;-69
2021/09/24 10:09:41;;;;;;;2.03;0.70;;;20.90;99.90;;;;;;4991669;28;20031;-68
2021/09/24 10:12:22;;;;;;;1.05;0.70;;;20.90;99.90;;;;;;4991705;28;20046;-68
2021/09/24 10:14:51;;;;;;;0.77;0.63;;;20.90;99.90;;;;;;4991659;28;20101;-68
2021/09/24 10:17:17;;;;;;;1.30;0.73;;;20.90;99.90;;;;;;4991801;28;20026;-68
2021/09/24 10:19:45;;;;;;;1.20;0.82;;;21.00;99.90;;;;;;4991694;28;20026;-68
2021/09/24 10:22:12;;;;;;;1.58;0.68;;;21.00;99.90;;;;;;4991812;28;20030;-68
2021/09/24 10:24:41;;;;;;;1.38;0.70;;;21.00;99.90;;;;;;4991393;28;20470;-68
2021/09/24 10:27:12;;;;;;;1.17;0.70;;;21.00;99.90;;;;;;4991714;28;20030;-68
2021/09/24 10:29:44;;;;;;;1.20;0.73;;;21.00;99.90;;;;;;4991629;28;20023;-69
2021/09/24 10:32:22;;;;;;;0.80;0.60;;;21.00;99.90;;;;;;4991583;28;20121;-69
2021/09/24 10:34:57;;;;;;;1.00;0.70;;;21.00;99.90;;;;;;4991532;28;20022;-69
2021/09/24 10:37:25;;;;;;;1.08;0.70;;;21.00;99.90;;;;;;4991763;28;20015;-69
2021/09/24 10:39:58;;;;;;;1.10;0.65;;;21.00;99.90;;;;;;4994786;28;20383;-69
2021/09/24 10:42:30;;;;;;;1.15;0.70;;;21.00;99.90;;;;;;4995427;28;20023;-69
2021/09/24 10:45:14;;;;;;;1.20;0.50;;;21.00;99.90;;;;;;4995211;28;20034;-69
2021/09/24 10:47:50;;;;;;;1.10;0.63;;;21.10;99.90;;;;;;4994987;28;20080;-69
2021/09/24 10:50:34;;;;;;;1.10;0.70;;;21.10;99.90;;;;;;4995313;28;20434;-68
2021/09/24 10:53:18;;;;;;;1.25;0.60;;;21.10;99.90;;;;;;4995450;28;20500;-69
2021/09/24 10:55:53;;;;;;;1.40;0.60;;;21.10;99.90;;;;;;4995019;28;20426;-68
2021/09/24 10:58:28;;;;;;;1.10;0.60;;;21.10;99.90;;;;;;4995239;28;20034;-69
2021/09/24 11:01:11;;;;;;;1.05;0.57;;;21.10;99.90;;;;;;4995029;28;20379;-69
2021/09/24 11:03:58;;;;;;;0.77;0.47;;;21.10;99.90;;;;;;4994782;28;20031;-69
2021/09/24 11:06:46;;;;;;;1.25;0.60;;;21.10;99.90;;;;;;4994979;28;20031;-69
2021/09/24 11:09:17;;;;;;;0.45;0.30;;;21.10;99.90;;;;;;4994904;28;20030;-69
2021/09/24 11:12:00;;;;;;;0.80;0.60;;;21.20;99.90;;;;;;4994455;28;20035;-69
2021/09/24 11:14:45;;;;;;;0.75;0.60;;;21.20;99.90;;;;;;4994863;28;20037;-68
2021/09/24 11:17:32;;;;;;;0.90;0.65;;;21.20;99.90;;;;;;4994725;28;20121;-68
2021/09/24 11:19:58;;;;;;;0.77;0.32;;;21.20;99.90;;;;;;4994332;28;20098;-69
2021/09/24 11:22:37;;;;;;;0.65;0.45;;;21.20;99.90;;;;;;4994688;28;20499;-69
2021/09/24 11:25:05;;;;;;;1.20;0.50;;;21.20;99.90;;;;;;4995005;28;20018;-69
2021/09/24 11:27:43;;;;;;;1.00;0.50;;;21.20;99.90;;;;;;4994844;28;20512;-69
2021/09/24 11:30:11;;;;;;;0.90;0.40;;;21.20;99.90;;;;;;4994595;28;20371;-68
2021/09/24 11:32:40;;;;;;;0.57;0.40;;;21.20;99.90;;;;;;4994184;28;20476;-68
2021/09/24 11:35:08;;;;;;;0.63;0.30;;;21.20;99.90;;;;;;4994629;28;20037;-69
2021/09/24 11:37:37;;;;;;;1.13;0.50;;;21.30;99.90;;;;;;4994851;28;20042;-69
2021/09/24 11:40:05;;;;;;;1.40;0.40;;;21.30;99.90;;;;;;4994467;28;20030;-69
2021/09/24 11:42:40;;;;;;;1.25;0.30;;;21.30;99.90;;;;;;4995005;28;20422;-69
2021/09/24 11:45:13;;;;;;;0.70;0.47;;;21.30;99.90;;;;;;4994262;28;20042;-69
2021/09/24 11:47:43;;;;;;;0.77;0.30;;;21.30;99.90;;;;;;4994130;28;20069;-68
2021/09/24 11:50:08;;;;;;;0.50;0.40;;;21.30;99.90;;;;;;4993090;28;20042;-68
2021/09/24 11:52:39;;;;;;;1.25;0.50;;;21.30;99.90;;;;;;4994389;28;20041;-68
2021/09/24 11:55:18;;;;;;;1.13;0.55;;;21.30;99.90;;;;;;4994413;28;20033;-69
2021/09/24 11:58:02;;;;;;;1.35;0.50;;;21.30;99.90;;;;;;4993904;28;20111;-68
2021/09/24 12:00:37;;;;;;;0.43;0.30;;;21.30;99.90;;;;;;4994010;28;20022;-68
2021/09/24 12:03:06;;;;;;;0.70;0.30;;;21.30;99.90;;;;;;4994651;28;20453;-68
2021/09/24 12:05:32;;;;;;;0.63;0.45;;;21.30;99.90;;;;;;4994212;28;20057;-68
2021/09/24 12:07:58;;;;;;;0.98;0.55;;;21.40;99.90;;;;;;4993657;28;20026;-69
2021/09/24 12:10:28;;;;;;;0.98;0.43;;;21.40;99.90;;;;;;4993790;28;20054;-69
2021/09/24 12:13:35;;;;;;;0.70;0.40;;;21.40;99.90;;;;;;4993420;28;20430;-68
2021/09/24 12:16:01;;;;;;;0.82;0.30;;;21.40;99.90;;;;;;4956054;28;20550;-68
2021/09/24 12:19:02;;;;;;;0.43;0.40;;;21.40;99.90;;;;;;4993639;28;20058;-69
2021/09/24 12:21:48;;;;;;;0.50;0.30;;;21.40;99.90;;;;;;4993318;28;20023;-68
2021/09/24 12:24:15;;;;;;;0.55;0.30;;;21.40;99.90;;;;;;4993427;28;20105;-68
2021/09/24 12:26:43;;;;;;;0.55;0.40;;;21.40;99.90;;;;;;4993178;28;20149;-68
2021/09/24 12:29:13;;;;;;;0.85;0.40;;;21.40;99.90;;;;;;4993435;28;20490;-69
2021/09/24 12:31:44;;;;;;;0.60;0.30;;;21.50;99.90;;;;;;4993037;28;20096;-69
2021/09/24 12:34:14;;;;;;;0.38;0.28;;;21.50;99.90;;;;;;4993465;28;20025;-69
2021/09/24 12:36:56;;;;;;;0.22;0.20;;;21.50;99.90;;;;;;4993051;28;20034;-69
2021/09/24 12:39:24;;;;;;;0.60;0.30;;;21.50;99.90;;;;;;4993378;28;20022;-69
2021/09/24 12:41:51;;;;;;;0.40;0.30;;;21.50;99.90;;;;;;4992948;28;20022;-69
2021/09/24 12:44:17;;;;;;;0.95;0.45;;;21.50;99.90;;;;;;4993140;28;20034;-68
2021/09/24 12:46:49;;;;;;;0.68;0.30;;;21.50;99.90;;;;;;4992955;28;20026;-69
2021/09/24 12:49:16;;;;;;;0.47;0.35;;;21.60;99.90;;;;;;4993245;28;20129;-68